sensor_id;sensor_type;location;lat;lon;timestamp;P1;durP1;ratioP1;P2;durP2;ratioP2
70126;SDS011;57491;42.694;23.314;2023-03-23T00:01:07;43.22;;;23.23;;
70126;SDS011;57491;42.694;23.314;2023-03-23T00:03:38;43.60;;;25.08;;
70126;SDS011;57491;42.694;23.314;2023-03-23T00:06:07;43.50;;;24.20;;
70126;SDS011;57491;42.694;23.314;2023-03-23T00:08:36;44.15;;;25.50;;
70126;SDS011;57491;42.694;23.314;2023-03-23T00:11:10;44.13;;;23.63;;
70126;SDS011;57491;42.694;23.314;2023-03-23T00:13:40;42.38;;;24.42;;
70126;SDS011;57491;42.694;23.314;2023-03-23T00:16:08;40.75;;;24.70;;
70126;SDS011;57491;42.694;23.314;2023-03-23T00:18:43;42.60;;;24.58;;
70126;SDS011;57491;42.694;23.314;2023-03-23T00:21:12;46.53;;;25.15;;
70126;SDS011;57491;42.694;23.314;2023-03-23T00:23:39;44.60;;;26.00;;
70126;SDS011;57491;42.694;23.314;2023-03-23T00:26:10;43.35;;;26.13;;
70126;SDS011;57491;42.694;23.314;2023-03-23T00:28:38;44.42;;;25.35;;
70126;SDS011;57491;42.694;23.314;2023-03-23T00:31:06;44.10;;;26.02;;
70126;SDS011;57491;42.694;23.314;2023-03-23T00:33:37;51.17;;;27.05;;
70126;SDS011;57491;42.694;23.314;2023-03-23T00:36:07;48.47;;;26.75;;
70126;SDS011;57491;42.694;23.314;2023-03-23T00:38:37;45.40;;;26.63;;
70126;SDS011;57491;42.694;23.314;2023-03-23T00:41:05;46.83;;;26.52;;
70126;SDS011;57491;42.694;23.314;2023-03-23T00:43:33;44.10;;;25.40;;
70126;SDS011;57491;42.694;23.314;2023-03-23T00:46:01;45.47;;;26.17;;
70126;SDS011;57491;42.694;23.314;2023-03-23T00:48:34;49.10;;;25.58;;
70126;SDS011;57491;42.694;23.314;2023-03-23T00:51:06;48.50;;;26.83;;
70126;SDS011;57491;42.694;23.314;2023-03-23T00:53:38;53.47;;;29.58;;
70126;SDS011;57491;42.694;23.314;2023-03-23T00:56:06;51.10;;;28.52;;
70126;SDS011;57491;42.694;23.314;2023-03-23T00:58:35;49.05;;;28.17;;
70126;SDS011;57491;42.694;23.314;2023-03-23T01:01:02;48.50;;;28.08;;
70126;SDS011;57491;42.694;23.314;2023-03-23T01:05:57;50.53;;;28.25;;
70126;SDS011;57491;42.694;23.314;2023-03-23T01:08:25;46.88;;;27.80;;
70126;SDS011;57491;42.694;23.314;2023-03-23T01:11:00;48.83;;;27.38;;
70126;SDS011;57491;42.694;23.314;2023-03-23T01:13:28;48.80;;;27.33;;
70126;SDS011;57491;42.694;23.314;2023-03-23T01:15:55;51.63;;;27.52;;
70126;SDS011;57491;42.694;23.314;2023-03-23T01:18:22;48.95;;;28.58;;
70126;SDS011;57491;42.694;23.314;2023-03-23T01:20:49;56.97;;;30.25;;
70126;SDS011;57491;42.694;23.314;2023-03-23T01:23:16;60.65;;;33.58;;
70126;SDS011;57491;42.694;23.314;2023-03-23T01:25:43;57.08;;;30.92;;
70126;SDS011;57491;42.694;23.314;2023-03-23T01:28:12;57.33;;;32.67;;
70126;SDS011;57491;42.694;23.314;2023-03-23T01:30:40;58.47;;;30.35;;
70126;SDS011;57491;42.694;23.314;2023-03-23T01:33:07;53.50;;;30.55;;
70126;SDS011;57491;42.694;23.314;2023-03-23T01:35:36;55.95;;;30.83;;
70126;SDS011;57491;42.694;23.314;2023-03-23T01:38:04;58.45;;;30.38;;
70126;SDS011;57491;42.694;23.314;2023-03-23T01:40:31;51.83;;;29.73;;
70126;SDS011;57491;42.694;23.314;2023-03-23T01:42:58;54.83;;;27.13;;
70126;SDS011;57491;42.694;23.314;2023-03-23T01:45:28;56.17;;;29.13;;
70126;SDS011;57491;42.694;23.314;2023-03-23T01:48:01;47.65;;;26.95;;
70126;SDS011;57491;42.694;23.314;2023-03-23T01:50:34;51.03;;;27.02;;
70126;SDS011;57491;42.694;23.314;2023-03-23T01:53:07;51.70;;;26.45;;
70126;SDS011;57491;42.694;23.314;2023-03-23T01:55:36;50.67;;;28.17;;
70126;SDS011;57491;42.694;23.314;2023-03-23T01:58:06;51.92;;;27.50;;
70126;SDS011;57491;42.694;23.314;2023-03-23T02:00:37;43.45;;;27.52;;
70126;SDS011;57491;42.694;23.314;2023-03-23T02:03:08;50.50;;;27.88;;
70126;SDS011;57491;42.694;23.314;2023-03-23T02:05:39;45.90;;;26.77;;
70126;SDS011;57491;42.694;23.314;2023-03-23T02:08:08;50.17;;;25.65;;
70126;SDS011;57491;42.694;23.314;2023-03-23T02:10:38;46.55;;;25.67;;
70126;SDS011;57491;42.694;23.314;2023-03-23T02:13:07;42.75;;;25.48;;
70126;SDS011;57491;42.694;23.314;2023-03-23T02:15:43;53.60;;;26.55;;
70126;SDS011;57491;42.694;23.314;2023-03-23T02:18:22;46.17;;;25.30;;
70126;SDS011;57491;42.694;23.314;2023-03-23T02:21:04;42.53;;;25.63;;
70126;SDS011;57491;42.694;23.314;2023-03-23T02:26:53;45.30;;;26.63;;
70126;SDS011;57491;42.694;23.314;2023-03-23T02:32:41;45.42;;;23.98;;
70126;SDS011;57491;42.694;23.314;2023-03-23T02:35:29;36.10;;;20.85;;
70126;SDS011;57491;42.694;23.314;2023-03-23T02:38:00;28.45;;;17.65;;
70126;SDS011;57491;42.694;23.314;2023-03-23T02:40:32;30.20;;;17.92;;
70126;SDS011;57491;42.694;23.314;2023-03-23T02:43:04;30.92;;;17.23;;
70126;SDS011;57491;42.694;23.314;2023-03-23T02:45:34;31.67;;;17.95;;
70126;SDS011;57491;42.694;23.314;2023-03-23T02:48:04;35.42;;;18.83;;
70126;SDS011;57491;42.694;23.314;2023-03-23T02:50:34;31.33;;;18.08;;
70126;SDS011;57491;42.694;23.314;2023-03-23T02:53:05;33.60;;;17.83;;
70126;SDS011;57491;42.694;23.314;2023-03-23T02:55:36;44.88;;;23.38;;
70126;SDS011;57491;42.694;23.314;2023-03-23T02:58:07;41.53;;;24.55;;
70126;SDS011;57491;42.694;23.314;2023-03-23T03:00:35;44.33;;;24.15;;
70126;SDS011;57491;42.694;23.314;2023-03-23T03:03:03;45.13;;;24.63;;
70126;SDS011;57491;42.694;23.314;2023-03-23T03:05:36;40.45;;;23.00;;
70126;SDS011;57491;42.694;23.314;2023-03-23T03:08:15;38.72;;;21.25;;
70126;SDS011;57491;42.694;23.314;2023-03-23T03:10:50;34.65;;;20.48;;
70126;SDS011;57491;42.694;23.314;2023-03-23T03:13:24;31.30;;;19.58;;
70126;SDS011;57491;42.694;23.314;2023-03-23T03:15:58;31.10;;;18.95;;
70126;SDS011;57491;42.694;23.314;2023-03-23T03:18:28;30.95;;;17.77;;
70126;SDS011;57491;42.694;23.314;2023-03-23T03:21:02;28.70;;;16.00;;
70126;SDS011;57491;42.694;23.314;2023-03-23T03:23:33;25.75;;;15.60;;
70126;SDS011;57491;42.694;23.314;2023-03-23T03:26:02;29.55;;;15.88;;
70126;SDS011;57491;42.694;23.314;2023-03-23T03:28:34;25.27;;;14.43;;
70126;SDS011;57491;42.694;23.314;2023-03-23T03:31:03;21.55;;;13.05;;
70126;SDS011;57491;42.694;23.314;2023-03-23T03:33:33;18.20;;;11.95;;
70126;SDS011;57491;42.694;23.314;2023-03-23T03:36:03;17.77;;;12.38;;
70126;SDS011;57491;42.694;23.314;2023-03-23T03:38:40;17.73;;;11.18;;
70126;SDS011;57491;42.694;23.314;2023-03-23T03:41:08;16.77;;;10.52;;
70126;SDS011;57491;42.694;23.314;2023-03-23T03:43:35;15.45;;;9.40;;
70126;SDS011;57491;42.694;23.314;2023-03-23T03:46:02;18.07;;;10.63;;
70126;SDS011;57491;42.694;23.314;2023-03-23T03:48:30;20.17;;;11.27;;
70126;SDS011;57491;42.694;23.314;2023-03-23T03:50:57;17.85;;;10.88;;
70126;SDS011;57491;42.694;23.314;2023-03-23T03:53:27;18.48;;;11.48;;
70126;SDS011;57491;42.694;23.314;2023-03-23T03:55:54;18.25;;;11.32;;
70126;SDS011;57491;42.694;23.314;2023-03-23T03:58:25;16.00;;;11.18;;
70126;SDS011;57491;42.694;23.314;2023-03-23T04:00:57;21.73;;;11.40;;
70126;SDS011;57491;42.694;23.314;2023-03-23T04:03:25;19.00;;;11.10;;
70126;SDS011;57491;42.694;23.314;2023-03-23T04:05:53;19.30;;;11.60;;
70126;SDS011;57491;42.694;23.314;2023-03-23T04:08:21;17.60;;;11.35;;
70126;SDS011;57491;42.694;23.314;2023-03-23T04:10:50;18.83;;;11.82;;
70126;SDS011;57491;42.694;23.314;2023-03-23T04:13:17;16.83;;;11.48;;
70126;SDS011;57491;42.694;23.314;2023-03-23T04:15:45;19.97;;;12.13;;
70126;SDS011;57491;42.694;23.314;2023-03-23T04:18:12;19.85;;;11.77;;
70126;SDS011;57491;42.694;23.314;2023-03-23T04:20:42;18.85;;;11.43;;
70126;SDS011;57491;42.694;23.314;2023-03-23T04:23:12;20.60;;;12.98;;
70126;SDS011;57491;42.694;23.314;2023-03-23T04:25:39;17.83;;;10.93;;
70126;SDS011;57491;42.694;23.314;2023-03-23T04:28:08;20.42;;;11.93;;
70126;SDS011;57491;42.694;23.314;2023-03-23T04:30:36;17.70;;;10.93;;
70126;SDS011;57491;42.694;23.314;2023-03-23T04:33:03;20.95;;;12.52;;
70126;SDS011;57491;42.694;23.314;2023-03-23T04:35:30;19.17;;;12.32;;
70126;SDS011;57491;42.694;23.314;2023-03-23T04:37:57;21.17;;;12.38;;
70126;SDS011;57491;42.694;23.314;2023-03-23T04:40:24;18.20;;;11.98;;
70126;SDS011;57491;42.694;23.314;2023-03-23T04:42:51;21.37;;;11.47;;
70126;SDS011;57491;42.694;23.314;2023-03-23T04:45:24;20.65;;;11.93;;
70126;SDS011;57491;42.694;23.314;2023-03-23T04:47:51;21.58;;;12.07;;
70126;SDS011;57491;42.694;23.314;2023-03-23T04:50:23;21.00;;;11.52;;
70126;SDS011;57491;42.694;23.314;2023-03-23T04:52:52;23.27;;;12.15;;
70126;SDS011;57491;42.694;23.314;2023-03-23T04:55:24;20.40;;;12.45;;
70126;SDS011;57491;42.694;23.314;2023-03-23T04:57:52;23.40;;;13.02;;
70126;SDS011;57491;42.694;23.314;2023-03-23T05:00:20;18.13;;;12.43;;
70126;SDS011;57491;42.694;23.314;2023-03-23T05:02:48;23.30;;;12.25;;
70126;SDS011;57491;42.694;23.314;2023-03-23T05:05:17;24.33;;;13.15;;
70126;SDS011;57491;42.694;23.314;2023-03-23T05:07:45;22.60;;;13.60;;
70126;SDS011;57491;42.694;23.314;2023-03-23T05:10:13;19.90;;;12.45;;
70126;SDS011;57491;42.694;23.314;2023-03-23T05:12:41;25.15;;;12.75;;
70126;SDS011;57491;42.694;23.314;2023-03-23T05:15:09;23.85;;;15.98;;
70126;SDS011;57491;42.694;23.314;2023-03-23T05:17:37;28.23;;;16.50;;
70126;SDS011;57491;42.694;23.314;2023-03-23T05:20:07;34.97;;;19.17;;
70126;SDS011;57491;42.694;23.314;2023-03-23T05:22:37;31.67;;;19.83;;
70126;SDS011;57491;42.694;23.314;2023-03-23T05:25:05;37.10;;;20.13;;
70126;SDS011;57491;42.694;23.314;2023-03-23T05:27:34;36.58;;;22.00;;
70126;SDS011;57491;42.694;23.314;2023-03-23T05:30:02;32.03;;;18.33;;
70126;SDS011;57491;42.694;23.314;2023-03-23T05:32:30;33.00;;;18.73;;
70126;SDS011;57491;42.694;23.314;2023-03-23T05:34:57;32.43;;;19.37;;
70126;SDS011;57491;42.694;23.314;2023-03-23T05:37:27;34.60;;;19.52;;
70126;SDS011;57491;42.694;23.314;2023-03-23T05:39:57;33.60;;;19.65;;
70126;SDS011;57491;42.694;23.314;2023-03-23T05:42:31;34.92;;;20.10;;
70126;SDS011;57491;42.694;23.314;2023-03-23T05:44:59;39.92;;;20.65;;
70126;SDS011;57491;42.694;23.314;2023-03-23T05:47:27;32.00;;;21.40;;
70126;SDS011;57491;42.694;23.314;2023-03-23T05:49:54;35.40;;;19.13;;
70126;SDS011;57491;42.694;23.314;2023-03-23T05:52:21;36.83;;;20.13;;
70126;SDS011;57491;42.694;23.314;2023-03-23T05:54:50;38.53;;;21.40;;
70126;SDS011;57491;42.694;23.314;2023-03-23T05:57:18;38.88;;;21.65;;
70126;SDS011;57491;42.694;23.314;2023-03-23T05:59:47;34.83;;;22.20;;
70126;SDS011;57491;42.694;23.314;2023-03-23T06:02:14;36.35;;;23.48;;
70126;SDS011;57491;42.694;23.314;2023-03-23T06:04:41;41.67;;;24.23;;
70126;SDS011;57491;42.694;23.314;2023-03-23T06:07:08;41.47;;;22.55;;
70126;SDS011;57491;42.694;23.314;2023-03-23T06:09:39;36.47;;;22.58;;
70126;SDS011;57491;42.694;23.314;2023-03-23T06:12:08;34.30;;;21.20;;
70126;SDS011;57491;42.694;23.314;2023-03-23T06:14:37;41.28;;;22.45;;
70126;SDS011;57491;42.694;23.314;2023-03-23T06:19:33;40.40;;;21.45;;
70126;SDS011;57491;42.694;23.314;2023-03-23T06:22:00;43.20;;;23.05;;
70126;SDS011;57491;42.694;23.314;2023-03-23T06:24:27;42.28;;;23.73;;
70126;SDS011;57491;42.694;23.314;2023-03-23T06:26:55;52.10;;;25.38;;
70126;SDS011;57491;42.694;23.314;2023-03-23T06:29:23;49.88;;;26.65;;
70126;SDS011;57491;42.694;23.314;2023-03-23T06:31:51;46.78;;;29.42;;
70126;SDS011;57491;42.694;23.314;2023-03-23T06:34:21;56.10;;;32.53;;
70126;SDS011;57491;42.694;23.314;2023-03-23T06:36:48;57.72;;;33.22;;
70126;SDS011;57491;42.694;23.314;2023-03-23T06:39:15;46.80;;;29.10;;
70126;SDS011;57491;42.694;23.314;2023-03-23T06:41:42;49.25;;;27.65;;
70126;SDS011;57491;42.694;23.314;2023-03-23T06:44:09;46.97;;;27.58;;
70126;SDS011;57491;42.694;23.314;2023-03-23T06:46:40;37.72;;;23.65;;
70126;SDS011;57491;42.694;23.314;2023-03-23T06:49:07;42.42;;;23.05;;
70126;SDS011;57491;42.694;23.314;2023-03-23T06:51:35;38.35;;;24.95;;
70126;SDS011;57491;42.694;23.314;2023-03-23T06:54:03;44.60;;;24.02;;
70126;SDS011;57491;42.694;23.314;2023-03-23T06:56:30;51.38;;;25.17;;
70126;SDS011;57491;42.694;23.314;2023-03-23T06:58:57;35.23;;;22.70;;
70126;SDS011;57491;42.694;23.314;2023-03-23T07:01:24;37.83;;;24.00;;
70126;SDS011;57491;42.694;23.314;2023-03-23T07:03:53;36.58;;;23.17;;
70126;SDS011;57491;42.694;23.314;2023-03-23T07:06:22;41.63;;;23.88;;
70126;SDS011;57491;42.694;23.314;2023-03-23T07:08:49;41.90;;;24.93;;
70126;SDS011;57491;42.694;23.314;2023-03-23T07:11:16;43.13;;;26.07;;
70126;SDS011;57491;42.694;23.314;2023-03-23T07:13:43;37.43;;;24.63;;
70126;SDS011;57491;42.694;23.314;2023-03-23T07:16:10;45.20;;;23.83;;
70126;SDS011;57491;42.694;23.314;2023-03-23T07:18:37;36.50;;;24.75;;
70126;SDS011;57491;42.694;23.314;2023-03-23T07:21:06;40.75;;;22.42;;
70126;SDS011;57491;42.694;23.314;2023-03-23T07:23:34;37.92;;;23.10;;
70126;SDS011;57491;42.694;23.314;2023-03-23T07:26:01;42.07;;;23.07;;
70126;SDS011;57491;42.694;23.314;2023-03-23T07:28:29;33.83;;;22.17;;
70126;SDS011;57491;42.694;23.314;2023-03-23T07:30:57;33.42;;;22.40;;
70126;SDS011;57491;42.694;23.314;2023-03-23T07:33:27;41.45;;;21.98;;
70126;SDS011;57491;42.694;23.314;2023-03-23T07:35:54;33.13;;;20.30;;
70126;SDS011;57491;42.694;23.314;2023-03-23T07:38:23;37.33;;;21.90;;
70126;SDS011;57491;42.694;23.314;2023-03-23T07:40:53;48.53;;;21.27;;
70126;SDS011;57491;42.694;23.314;2023-03-23T07:43:20;36.88;;;20.88;;
70126;SDS011;57491;42.694;23.314;2023-03-23T07:45:47;36.65;;;21.27;;
70126;SDS011;57491;42.694;23.314;2023-03-23T07:48:15;40.53;;;22.55;;
70126;SDS011;57491;42.694;23.314;2023-03-23T07:50:42;37.97;;;22.98;;
70126;SDS011;57491;42.694;23.314;2023-03-23T07:55:38;35.77;;;21.23;;
70126;SDS011;57491;42.694;23.314;2023-03-23T07:58:06;33.60;;;22.00;;
70126;SDS011;57491;42.694;23.314;2023-03-23T08:00:33;37.33;;;22.92;;
70126;SDS011;57491;42.694;23.314;2023-03-23T08:03:01;33.97;;;21.60;;
70126;SDS011;57491;42.694;23.314;2023-03-23T08:05:31;28.88;;;18.63;;
70126;SDS011;57491;42.694;23.314;2023-03-23T08:07:59;33.28;;;20.23;;
70126;SDS011;57491;42.694;23.314;2023-03-23T08:10:26;25.13;;;17.33;;
70126;SDS011;57491;42.694;23.314;2023-03-23T08:12:56;33.58;;;17.85;;
70126;SDS011;57491;42.694;23.314;2023-03-23T08:15:25;28.67;;;16.15;;
70126;SDS011;57491;42.694;23.314;2023-03-23T08:20:19;24.00;;;15.68;;
70126;SDS011;57491;42.694;23.314;2023-03-23T08:22:51;24.83;;;15.18;;
70126;SDS011;57491;42.694;23.314;2023-03-23T08:25:20;20.90;;;13.13;;
70126;SDS011;57491;42.694;23.314;2023-03-23T08:27:50;20.17;;;12.80;;
70126;SDS011;57491;42.694;23.314;2023-03-23T08:30:19;23.85;;;14.45;;
70126;SDS011;57491;42.694;23.314;2023-03-23T08:32:48;23.17;;;15.05;;
70126;SDS011;57491;42.694;23.314;2023-03-23T08:35:16;21.83;;;15.70;;
70126;SDS011;57491;42.694;23.314;2023-03-23T08:37:45;24.15;;;16.67;;
70126;SDS011;57491;42.694;23.314;2023-03-23T08:40:17;26.00;;;17.58;;
70126;SDS011;57491;42.694;23.314;2023-03-23T08:42:46;27.27;;;18.48;;
70126;SDS011;57491;42.694;23.314;2023-03-23T08:45:15;26.55;;;16.38;;
70126;SDS011;57491;42.694;23.314;2023-03-23T08:47:49;15.27;;;11.15;;
70126;SDS011;57491;42.694;23.314;2023-03-23T08:50:23;16.08;;;9.55;;
70126;SDS011;57491;42.694;23.314;2023-03-23T08:52:53;12.48;;;9.07;;
70126;SDS011;57491;42.694;23.314;2023-03-23T08:55:22;14.57;;;9.80;;
70126;SDS011;57491;42.694;23.314;2023-03-23T08:57:50;15.15;;;9.65;;
70126;SDS011;57491;42.694;23.314;2023-03-23T09:00:19;9.98;;;8.07;;
70126;SDS011;57491;42.694;23.314;2023-03-23T09:02:52;9.70;;;8.43;;
70126;SDS011;57491;42.694;23.314;2023-03-23T09:05:26;13.20;;;9.25;;
70126;SDS011;57491;42.694;23.314;2023-03-23T09:07:56;13.35;;;9.25;;
70126;SDS011;57491;42.694;23.314;2023-03-23T09:10:25;10.75;;;8.63;;
70126;SDS011;57491;42.694;23.314;2023-03-23T09:12:54;13.98;;;10.93;;
70126;SDS011;57491;42.694;23.314;2023-03-23T09:15:23;12.43;;;8.55;;
70126;SDS011;57491;42.694;23.314;2023-03-23T09:17:52;11.82;;;9.82;;
70126;SDS011;57491;42.694;23.314;2023-03-23T09:20:22;13.23;;;9.73;;
70126;SDS011;57491;42.694;23.314;2023-03-23T09:22:52;11.57;;;8.50;;
70126;SDS011;57491;42.694;23.314;2023-03-23T09:25:21;12.93;;;9.55;;
70126;SDS011;57491;42.694;23.314;2023-03-23T09:27:51;13.57;;;9.70;;
70126;SDS011;57491;42.694;23.314;2023-03-23T09:30:22;12.40;;;8.52;;
70126;SDS011;57491;42.694;23.314;2023-03-23T09:32:53;15.07;;;9.65;;
70126;SDS011;57491;42.694;23.314;2023-03-23T09:35:21;12.00;;;9.18;;
70126;SDS011;57491;42.694;23.314;2023-03-23T09:37:53;10.32;;;8.10;;
70126;SDS011;57491;42.694;23.314;2023-03-23T09:40:22;11.57;;;8.27;;
70126;SDS011;57491;42.694;23.314;2023-03-23T09:42:56;7.22;;;6.53;;
70126;SDS011;57491;42.694;23.314;2023-03-23T09:45:46;10.45;;;8.18;;
70126;SDS011;57491;42.694;23.314;2023-03-23T09:48:27;11.23;;;8.85;;
70126;SDS011;57491;42.694;23.314;2023-03-23T09:51:27;10.57;;;7.60;;
70126;SDS011;57491;42.694;23.314;2023-03-23T09:54:04;10.13;;;7.88;;
70126;SDS011;57491;42.694;23.314;2023-03-23T09:56:39;14.65;;;9.38;;
70126;SDS011;57491;42.694;23.314;2023-03-23T09:59:24;11.52;;;9.48;;
70126;SDS011;57491;42.694;23.314;2023-03-23T10:02:02;12.82;;;10.45;;
70126;SDS011;57491;42.694;23.314;2023-03-23T10:04:44;9.43;;;8.45;;
70126;SDS011;57491;42.694;23.314;2023-03-23T10:07:24;9.82;;;7.80;;
70126;SDS011;57491;42.694;23.314;2023-03-23T10:10:32;10.63;;;8.55;;
70126;SDS011;57491;42.694;23.314;2023-03-23T10:17:39;9.43;;;7.23;;
70126;SDS011;57491;42.694;23.314;2023-03-23T10:20:23;12.70;;;10.15;;
70126;SDS011;57491;42.694;23.314;2023-03-23T10:23:05;8.93;;;7.50;;
70126;SDS011;57491;42.694;23.314;2023-03-23T10:25:53;8.73;;;7.25;;
70126;SDS011;57491;42.694;23.314;2023-03-23T10:31:54;12.02;;;7.70;;
70126;SDS011;57491;42.694;23.314;2023-03-23T10:34:39;10.02;;;8.20;;
70126;SDS011;57491;42.694;23.314;2023-03-23T10:37:11;10.98;;;8.90;;
70126;SDS011;57491;42.694;23.314;2023-03-23T10:39:49;10.73;;;8.88;;
70126;SDS011;57491;42.694;23.314;2023-03-23T10:42:38;10.32;;;8.60;;
70126;SDS011;57491;42.694;23.314;2023-03-23T10:45:20;9.65;;;8.55;;
70126;SDS011;57491;42.694;23.314;2023-03-23T10:47:53;8.45;;;7.55;;
70126;SDS011;57491;42.694;23.314;2023-03-23T10:50:30;12.00;;;7.93;;
70126;SDS011;57491;42.694;23.314;2023-03-23T10:53:12;7.97;;;7.18;;
70126;SDS011;57491;42.694;23.314;2023-03-23T10:55:42;11.05;;;7.53;;
70126;SDS011;57491;42.694;23.314;2023-03-23T10:58:11;8.55;;;7.55;;
70126;SDS011;57491;42.694;23.314;2023-03-23T11:00:51;11.55;;;8.45;;
70126;SDS011;57491;42.694;23.314;2023-03-23T11:03:23;11.13;;;8.65;;
70126;SDS011;57491;42.694;23.314;2023-03-23T11:06:17;10.48;;;8.35;;
70126;SDS011;57491;42.694;23.314;2023-03-23T11:08:48;9.20;;;8.15;;
70126;SDS011;57491;42.694;23.314;2023-03-23T11:11:20;13.25;;;9.00;;
70126;SDS011;57491;42.694;23.314;2023-03-23T11:13:56;12.27;;;8.52;;
70126;SDS011;57491;42.694;23.314;2023-03-23T11:16:25;13.73;;;8.18;;
70126;SDS011;57491;42.694;23.314;2023-03-23T11:18:59;9.90;;;8.57;;
70126;SDS011;57491;42.694;23.314;2023-03-23T11:21:40;10.25;;;9.20;;
70126;SDS011;57491;42.694;23.314;2023-03-23T11:24:25;11.95;;;9.10;;
70126;SDS011;57491;42.694;23.314;2023-03-23T11:26:55;11.82;;;9.95;;
70126;SDS011;57491;42.694;23.314;2023-03-23T11:29:25;8.68;;;7.70;;
70126;SDS011;57491;42.694;23.314;2023-03-23T11:32:01;9.38;;;8.48;;
70126;SDS011;57491;42.694;23.314;2023-03-23T11:34:33;10.18;;;8.32;;
70126;SDS011;57491;42.694;23.314;2023-03-23T11:37:05;9.98;;;7.55;;
70126;SDS011;57491;42.694;23.314;2023-03-23T11:39:46;8.02;;;6.95;;
70126;SDS011;57491;42.694;23.314;2023-03-23T11:42:18;11.57;;;7.95;;
70126;SDS011;57491;42.694;23.314;2023-03-23T11:44:48;10.20;;;8.75;;
70126;SDS011;57491;42.694;23.314;2023-03-23T11:47:17;9.57;;;8.40;;
70126;SDS011;57491;42.694;23.314;2023-03-23T11:49:52;9.40;;;8.50;;
70126;SDS011;57491;42.694;23.314;2023-03-23T11:52:33;9.48;;;7.35;;
70126;SDS011;57491;42.694;23.314;2023-03-23T11:55:17;12.00;;;8.52;;
70126;SDS011;57491;42.694;23.314;2023-03-23T11:57:54;11.60;;;7.82;;
70126;SDS011;57491;42.694;23.314;2023-03-23T12:00:33;10.48;;;8.40;;
70126;SDS011;57491;42.694;23.314;2023-03-23T12:03:04;8.50;;;7.57;;
70126;SDS011;57491;42.694;23.314;2023-03-23T12:05:42;8.40;;;7.65;;
70126;SDS011;57491;42.694;23.314;2023-03-23T12:08:31;8.35;;;7.55;;
70126;SDS011;57491;42.694;23.314;2023-03-23T12:11:16;8.77;;;7.88;;
70126;SDS011;57491;42.694;23.314;2023-03-23T12:13:55;8.82;;;7.28;;
70126;SDS011;57491;42.694;23.314;2023-03-23T12:16:36;8.98;;;7.63;;
70126;SDS011;57491;42.694;23.314;2023-03-23T12:19:35;7.88;;;6.80;;
70126;SDS011;57491;42.694;23.314;2023-03-23T12:22:19;6.85;;;5.97;;
70126;SDS011;57491;42.694;23.314;2023-03-23T12:25:04;8.65;;;6.90;;
70126;SDS011;57491;42.694;23.314;2023-03-23T12:27:48;7.93;;;6.68;;
70126;SDS011;57491;42.694;23.314;2023-03-23T12:30:33;11.30;;;8.23;;
70126;SDS011;57491;42.694;23.314;2023-03-23T12:33:33;8.70;;;7.45;;
70126;SDS011;57491;42.694;23.314;2023-03-23T12:36:26;8.27;;;7.47;;
70126;SDS011;57491;42.694;23.314;2023-03-23T12:42:23;11.30;;;8.82;;
70126;SDS011;57491;42.694;23.314;2023-03-23T12:45:37;8.65;;;7.80;;
70126;SDS011;57491;42.694;23.314;2023-03-23T12:48:20;8.55;;;6.53;;
70126;SDS011;57491;42.694;23.314;2023-03-23T12:51:06;7.30;;;6.60;;
70126;SDS011;57491;42.694;23.314;2023-03-23T12:53:40;7.90;;;7.10;;
70126;SDS011;57491;42.694;23.314;2023-03-23T12:56:15;8.23;;;6.57;;
70126;SDS011;57491;42.694;23.314;2023-03-23T12:58:57;7.72;;;7.05;;
70126;SDS011;57491;42.694;23.314;2023-03-23T13:01:36;8.13;;;6.43;;
70126;SDS011;57491;42.694;23.314;2023-03-23T13:04:25;7.65;;;6.72;;
70126;SDS011;57491;42.694;23.314;2023-03-23T13:07:00;8.30;;;7.40;;
70126;SDS011;57491;42.694;23.314;2023-03-23T13:09:36;6.20;;;5.60;;
70126;SDS011;57491;42.694;23.314;2023-03-23T13:12:13;7.47;;;6.78;;
70126;SDS011;57491;42.694;23.314;2023-03-23T13:14:50;7.15;;;5.60;;
70126;SDS011;57491;42.694;23.314;2023-03-23T13:17:32;6.82;;;5.93;;
70126;SDS011;57491;42.694;23.314;2023-03-23T13:20:18;7.53;;;6.10;;
70126;SDS011;57491;42.694;23.314;2023-03-23T13:23:07;10.18;;;6.88;;
70126;SDS011;57491;42.694;23.314;2023-03-23T13:25:47;7.22;;;5.90;;
70126;SDS011;57491;42.694;23.314;2023-03-23T13:28:19;7.95;;;5.90;;
70126;SDS011;57491;42.694;23.314;2023-03-23T13:30:57;8.00;;;5.70;;
70126;SDS011;57491;42.694;23.314;2023-03-23T13:33:30;10.00;;;6.55;;
70126;SDS011;57491;42.694;23.314;2023-03-23T13:36:02;8.57;;;6.55;;
70126;SDS011;57491;42.694;23.314;2023-03-23T13:38:33;11.02;;;7.40;;
70126;SDS011;57491;42.694;23.314;2023-03-23T13:41:10;6.93;;;6.03;;
70126;SDS011;57491;42.694;23.314;2023-03-23T13:43:43;10.50;;;6.90;;
70126;SDS011;57491;42.694;23.314;2023-03-23T13:46:25;6.63;;;5.32;;
70126;SDS011;57491;42.694;23.314;2023-03-23T13:49:03;8.32;;;6.25;;
70126;SDS011;57491;42.694;23.314;2023-03-23T13:51:51;10.65;;;6.15;;
70126;SDS011;57491;42.694;23.314;2023-03-23T13:54:29;8.65;;;5.85;;
70126;SDS011;57491;42.694;23.314;2023-03-23T13:56:59;6.68;;;5.38;;
70126;SDS011;57491;42.694;23.314;2023-03-23T13:59:34;7.03;;;5.32;;
70126;SDS011;57491;42.694;23.314;2023-03-23T14:08:39;8.23;;;5.95;;
70126;SDS011;57491;42.694;23.314;2023-03-23T14:11:17;6.22;;;4.85;;
70126;SDS011;57491;42.694;23.314;2023-03-23T14:13:56;5.70;;;4.93;;
70126;SDS011;57491;42.694;23.314;2023-03-23T14:16:31;9.23;;;5.82;;
70126;SDS011;57491;42.694;23.314;2023-03-23T14:19:13;8.15;;;5.70;;
70126;SDS011;57491;42.694;23.314;2023-03-23T14:21:48;9.50;;;6.18;;
70126;SDS011;57491;42.694;23.314;2023-03-23T14:24:19;6.82;;;5.25;;
70126;SDS011;57491;42.694;23.314;2023-03-23T14:26:50;6.53;;;5.57;;
70126;SDS011;57491;42.694;23.314;2023-03-23T14:29:19;9.35;;;6.00;;
70126;SDS011;57491;42.694;23.314;2023-03-23T14:31:55;8.70;;;6.50;;
70126;SDS011;57491;42.694;23.314;2023-03-23T14:34:26;7.88;;;6.25;;
70126;SDS011;57491;42.694;23.314;2023-03-23T14:36:56;10.95;;;6.47;;
70126;SDS011;57491;42.694;23.314;2023-03-23T14:39:32;7.68;;;6.15;;
70126;SDS011;57491;42.694;23.314;2023-03-23T14:42:01;8.63;;;6.88;;
70126;SDS011;57491;42.694;23.314;2023-03-23T14:44:33;7.32;;;6.25;;
70126;SDS011;57491;42.694;23.314;2023-03-23T14:47:03;7.00;;;5.82;;
70126;SDS011;57491;42.694;23.314;2023-03-23T14:49:35;10.57;;;6.43;;
70126;SDS011;57491;42.694;23.314;2023-03-23T14:52:11;9.90;;;6.75;;
70126;SDS011;57491;42.694;23.314;2023-03-23T14:54:40;8.88;;;6.30;;
70126;SDS011;57491;42.694;23.314;2023-03-23T14:57:12;9.82;;;6.97;;
70126;SDS011;57491;42.694;23.314;2023-03-23T14:59:43;9.15;;;6.80;;
70126;SDS011;57491;42.694;23.314;2023-03-23T15:02:13;7.47;;;6.00;;
70126;SDS011;57491;42.694;23.314;2023-03-23T15:07:55;7.82;;;5.82;;
70126;SDS011;57491;42.694;23.314;2023-03-23T15:10:51;9.48;;;6.07;;
70126;SDS011;57491;42.694;23.314;2023-03-23T15:13:21;8.75;;;6.22;;
70126;SDS011;57491;42.694;23.314;2023-03-23T15:16:00;8.35;;;6.93;;
70126;SDS011;57491;42.694;23.314;2023-03-23T15:18:30;8.45;;;6.32;;
70126;SDS011;57491;42.694;23.314;2023-03-23T15:21:09;8.35;;;6.05;;
70126;SDS011;57491;42.694;23.314;2023-03-23T15:23:42;10.35;;;7.97;;